createdAt,value
2022-12-25T00:00:06.991Z,68.32
2022-12-25T00:02:34.137Z,69.35
2022-12-25T00:05:01.418Z,87.53
2022-12-25T00:07:28.383Z,71.78
2022-12-25T00:09:58.152Z,85.03
2022-12-25T00:12:25.238Z,87.07
2022-12-25T00:14:52.277Z,101.47
2022-12-25T00:17:19.363Z,68.68
2022-12-25T00:19:46.445Z,63.45
2022-12-25T00:22:13.575Z,287.88
2022-12-25T00:24:40.678Z,94.75
2022-12-25T00:27:07.866Z,67.90
2022-12-25T00:29:35.674Z,73.28
2022-12-25T00:32:02.987Z,88.95
2022-12-25T00:34:30.076Z,74.45
2022-12-25T00:36:57.306Z,106.28
2022-12-25T00:39:24.564Z,79.18
2022-12-25T00:42:10.447Z,165.85
2022-12-25T00:44:37.423Z,139.45
2022-12-25T00:47:05.077Z,279.65
2022-12-25T00:49:34.925Z,114.97
2022-12-25T00:52:02.015Z,57.10
2022-12-25T00:54:29.083Z,70.82
2022-12-25T00:56:56.238Z,68.13
2022-12-25T00:59:23.370Z,76.32
2022-12-25T01:01:50.761Z,74.40
2022-12-25T01:04:18.295Z,85.60
2022-12-25T01:06:45.421Z,96.18
2022-12-25T01:09:31.026Z,109.75
2022-12-25T01:12:00.607Z,110.82
2022-12-25T01:14:27.749Z,96.40
2022-12-25T01:16:54.891Z,116.28
2022-12-25T01:19:22.202Z,130.27
2022-12-25T01:21:49.334Z,130.95
2022-12-25T01:24:16.627Z,148.30
2022-12-25T01:26:43.723Z,153.77
2022-12-25T01:29:10.781Z,135.02
2022-12-25T01:31:37.952Z,176.65
2022-12-25T01:34:04.971Z,172.57
2022-12-25T01:36:32.467Z,123.60
2022-12-25T01:39:00.130Z,113.18
2022-12-25T01:41:27.245Z,98.20
2022-12-25T01:44:15.752Z,88.47
2022-12-25T01:46:43.981Z,89.38
2022-12-25T01:49:14.077Z,74.43
2022-12-25T01:51:59.531Z,78.25
2022-12-25T01:54:37.723Z,67.80
2022-12-25T01:57:09.942Z,85.00
2022-12-25T01:59:37.039Z,76.35
2022-12-25T02:02:04.595Z,69.88
2022-12-25T02:04:40.251Z,62.88
2022-12-25T02:07:20.095Z,51.28
2022-12-25T02:09:48.279Z,66.60
2022-12-25T02:12:26.863Z,84.25
2022-12-25T02:15:05.031Z,71.32
2022-12-25T02:17:59.127Z,91.60
2022-12-25T02:20:43.981Z,68.30
2022-12-25T02:23:46.879Z,69.43
2022-12-25T02:26:28.029Z,75.00
2022-12-25T02:29:01.757Z,57.67
2022-12-25T02:31:44.827Z,74.47
2022-12-25T02:34:26.244Z,71.28
2022-12-25T02:37:24.281Z,53.20
2022-12-25T02:40:09.482Z,64.88
2022-12-25T02:43:16.077Z,51.38
2022-12-25T02:46:14.718Z,58.43
2022-12-25T02:49:09.486Z,56.22
2022-12-25T02:52:01.139Z,42.58
2022-12-25T02:54:55.788Z,45.17
2022-12-25T02:57:46.829Z,64.82
2022-12-25T03:00:33.225Z,45.40
2022-12-25T03:03:21.359Z,54.70
2022-12-25T03:06:08.764Z,50.58
2022-12-25T03:08:40.930Z,51.08
2022-12-25T03:11:46.904Z,53.28
2022-12-25T03:14:32.793Z,50.38
2022-12-25T03:17:01.194Z,52.70
2022-12-25T03:19:52.815Z,45.10
2022-12-25T03:22:46.617Z,49.97
2022-12-25T03:25:33.445Z,47.60
2022-12-25T03:28:01.058Z,53.50
2022-12-25T03:31:12.097Z,45.30
2022-12-25T03:34:22.547Z,47.78
2022-12-25T03:37:09.221Z,48.40
2022-12-25T03:40:44.728Z,48.78
2022-12-25T03:44:04.011Z,54.65
2022-12-25T03:47:11.206Z,43.05
2022-12-25T03:50:15.057Z,47.13
2022-12-25T03:53:03.044Z,42.90
2022-12-25T03:55:50.007Z,54.17
2022-12-25T03:58:43.556Z,50.42
2022-12-25T04:01:29.269Z,40.47
2022-12-25T04:04:15.011Z,57.25
2022-12-25T04:07:01.057Z,55.50
2022-12-25T04:09:47.077Z,49.08
2022-12-25T04:12:32.449Z,46.33
2022-12-25T04:15:18.012Z,45.30
2022-12-25T04:18:03.424Z,43.63
2022-12-25T04:20:49.032Z,48.05
2022-12-25T04:23:34.633Z,54.53
2022-12-25T04:26:20.184Z,50.28
2022-12-25T04:29:05.741Z,42.92
2022-12-25T04:31:53.807Z,57.97
2022-12-25T04:34:39.510Z,43.92
2022-12-25T04:37:06.545Z,51.30
2022-12-25T04:39:33.704Z,51.67
2022-12-25T04:42:01.124Z,48.25
2022-12-25T04:44:28.431Z,50.38
2022-12-25T04:46:55.928Z,52.47
2022-12-25T04:49:23.154Z,48.50
2022-12-25T04:51:50.378Z,61.33
2022-12-25T04:54:17.622Z,53.75
2022-12-25T04:56:45.989Z,55.90
2022-12-25T04:59:13.551Z,47.60
2022-12-25T05:01:40.793Z,52.30
2022-12-25T05:04:08.018Z,59.47
2022-12-25T05:06:35.067Z,46.25
2022-12-25T05:09:02.117Z,60.75
2022-12-25T05:11:29.250Z,53.25
2022-12-25T05:13:57.841Z,59.72
2022-12-25T05:16:26.410Z,57.42
2022-12-25T05:18:53.717Z,53.45
2022-12-25T05:21:20.995Z,53.03
2022-12-25T05:23:52.620Z,49.83
2022-12-25T05:26:23.360Z,51.95
2022-12-25T05:28:51.052Z,56.53
2022-12-25T05:31:19.368Z,58.05
2022-12-25T05:33:50.218Z,52.15
2022-12-25T05:36:17.882Z,48.17
2022-12-25T05:38:44.933Z,58.00
2022-12-25T05:41:12.169Z,53.00
2022-12-25T05:43:39.297Z,50.15
2022-12-25T05:46:09.054Z,49.20
2022-12-25T05:48:38.132Z,44.30
2022-12-25T05:51:14.192Z,47.92
2022-12-25T05:53:43.160Z,46.38
2022-12-25T05:56:11.104Z,54.88
2022-12-25T05:58:40.467Z,49.10
2022-12-25T06:01:20.842Z,55.00
2022-12-25T06:03:48.448Z,48.00
2022-12-25T06:06:15.708Z,53.15
2022-12-25T06:08:43.038Z,49.03
2022-12-25T06:11:12.846Z,47.00
2022-12-25T06:13:40.232Z,49.22
2022-12-25T06:16:11.055Z,45.08
2022-12-25T06:18:46.766Z,44.90
2022-12-25T06:21:15.587Z,48.10
2022-12-25T06:23:43.671Z,46.80
2022-12-25T06:26:16.742Z,45.80
2022-12-25T06:28:44.833Z,45.40
2022-12-25T06:31:19.455Z,49.25
2022-12-25T06:33:47.348Z,38.55
2022-12-25T06:36:20.834Z,44.80
2022-12-25T06:38:48.591Z,44.22
2022-12-25T06:41:27.097Z,44.72
2022-12-25T06:43:57.387Z,43.08
2022-12-25T06:46:27.769Z,37.55
2022-12-25T06:48:54.901Z,40.97
2022-12-25T06:51:26.305Z,43.42
2022-12-25T06:53:55.275Z,42.83
2022-12-25T06:56:26.907Z,38.13
2022-12-25T06:59:01.766Z,43.40
2022-12-25T07:01:54.402Z,43.45
2022-12-25T07:04:28.522Z,39.33
2022-12-25T07:06:55.697Z,33.63
2022-12-25T07:09:22.858Z,33.15
2022-12-25T07:11:49.861Z,32.67
2022-12-25T07:14:24.444Z,42.53
2022-12-25T07:16:51.851Z,35.88
2022-12-25T07:19:19.419Z,28.73
2022-12-25T07:21:47.293Z,37.42
2022-12-25T07:24:22.437Z,31.30
2022-12-25T07:26:50.823Z,27.27
2022-12-25T07:29:19.566Z,28.48
2022-12-25T07:31:47.760Z,28.10
2022-12-25T07:34:17.152Z,30.00
2022-12-25T07:36:44.264Z,30.10
2022-12-25T07:39:11.945Z,26.25
2022-12-25T07:41:39.135Z,22.08
2022-12-25T07:44:16.033Z,22.92
2022-12-25T07:46:43.469Z,27.35
2022-12-25T07:49:11.297Z,26.13
2022-12-25T07:51:38.680Z,28.65
2022-12-25T07:54:05.938Z,25.00
2022-12-25T07:56:33.170Z,24.33
2022-12-25T07:59:00.328Z,22.77
2022-12-25T08:01:28.727Z,25.48
2022-12-25T08:04:02.049Z,21.30
2022-12-25T08:06:33.284Z,25.75
2022-12-25T08:09:08.300Z,22.25
2022-12-25T08:11:36.723Z,21.57
2022-12-25T08:14:07.011Z,20.58
2022-12-25T08:16:34.654Z,24.35
2022-12-25T08:19:02.056Z,20.73
2022-12-25T08:21:29.079Z,20.48
2022-12-25T08:23:56.348Z,23.92
2022-12-25T08:26:24.486Z,23.38
2022-12-25T08:28:51.990Z,17.30
2022-12-25T08:31:28.255Z,21.33
2022-12-25T08:33:58.418Z,19.73
2022-12-25T08:36:26.769Z,20.20
2022-12-25T08:39:00.393Z,21.20
2022-12-25T08:41:30.259Z,16.48
2022-12-25T08:43:57.633Z,20.27
2022-12-25T08:46:25.101Z,17.65
2022-12-25T08:48:52.328Z,20.48
2022-12-25T08:51:21.959Z,17.40
2022-12-25T08:53:51.900Z,20.55
2022-12-25T08:56:20.352Z,19.35
2022-12-25T08:58:47.427Z,17.70
2022-12-25T09:01:14.727Z,15.82
2022-12-25T09:03:43.053Z,17.13
2022-12-25T09:06:16.281Z,19.00
2022-12-25T09:08:49.162Z,18.02
2022-12-25T09:11:19.007Z,21.35
2022-12-25T09:13:46.314Z,15.77
2022-12-25T09:16:19.117Z,16.85
2022-12-25T09:18:46.497Z,20.15
2022-12-25T09:21:16.117Z,19.60
2022-12-25T09:23:43.698Z,16.85
2022-12-25T09:26:14.193Z,15.95
2022-12-25T09:28:50.190Z,16.50
2022-12-25T09:31:18.567Z,22.40
2022-12-25T09:33:45.748Z,18.10
2022-12-25T09:36:12.822Z,16.77
2022-12-25T09:38:39.933Z,19.05
2022-12-25T09:41:28.339Z,18.23
2022-12-25T09:44:08.469Z,16.85
2022-12-25T09:47:40.255Z,18.73
2022-12-25T09:50:39.840Z,16.08
2022-12-25T09:53:25.133Z,13.63
2022-12-25T09:56:22.286Z,16.05
2022-12-25T09:58:49.306Z,15.73
2022-12-25T10:02:15.256Z,16.17
2022-12-25T10:05:06.141Z,15.65
2022-12-25T10:08:07.185Z,15.68
2022-12-25T10:11:03.041Z,14.60
2022-12-25T10:14:09.298Z,15.00
2022-12-25T10:17:13.185Z,12.73
2022-12-25T10:20:24.682Z,15.73
2022-12-25T10:22:59.571Z,14.57
2022-12-25T10:25:26.745Z,14.18
2022-12-25T10:28:03.196Z,13.38
2022-12-25T10:30:31.472Z,12.20
2022-12-25T10:32:59.093Z,16.67
2022-12-25T10:35:29.225Z,15.38
2022-12-25T10:38:06.400Z,13.07
2022-12-25T10:40:52.083Z,14.77
2022-12-25T10:43:30.752Z,13.40
2022-12-25T10:45:59.459Z,13.40
2022-12-25T10:48:29.587Z,13.85
2022-12-25T10:50:57.052Z,14.75
2022-12-25T10:53:29.437Z,13.93
2022-12-25T10:56:01.763Z,12.90
2022-12-25T10:58:33.454Z,11.75
2022-12-25T11:01:05.309Z,13.57
2022-12-25T11:03:36.088Z,15.07
2022-12-25T11:06:03.842Z,15.55
2022-12-25T11:08:33.574Z,13.02
2022-12-25T11:11:06.305Z,12.85
2022-12-25T11:13:49.389Z,14.40
2022-12-25T11:16:38.314Z,14.60
2022-12-25T11:19:29.135Z,14.13
2022-12-25T11:22:00.484Z,16.77
2022-12-25T11:24:34.739Z,15.95
2022-12-25T11:27:08.870Z,15.40
2022-12-25T11:29:53.213Z,20.33
2022-12-25T11:32:34.573Z,16.75
2022-12-25T11:35:02.819Z,12.75
2022-12-25T11:37:43.491Z,14.70
2022-12-25T11:40:23.392Z,18.38
2022-12-25T11:43:04.093Z,16.55
2022-12-25T11:45:40.507Z,14.30
2022-12-25T11:48:22.233Z,19.05
2022-12-25T11:50:59.649Z,16.38
2022-12-25T11:53:52.755Z,17.70
2022-12-25T11:56:26.678Z,17.02
2022-12-25T11:59:01.134Z,12.60
2022-12-25T12:01:37.955Z,19.02
2022-12-25T12:04:17.421Z,17.33
2022-12-25T12:06:51.192Z,14.13
2022-12-25T12:09:40.000Z,15.88
2022-12-25T12:12:22.059Z,16.73
2022-12-25T12:15:28.799Z,16.77
2022-12-25T12:18:21.008Z,16.38
2022-12-25T12:21:20.898Z,18.52
2022-12-25T12:24:19.309Z,16.35
2022-12-25T12:27:00.052Z,20.08
2022-12-25T12:29:42.578Z,19.83
2022-12-25T12:32:41.825Z,18.48
2022-12-25T12:35:21.786Z,17.70
2022-12-25T12:37:56.217Z,15.82
2022-12-25T12:40:38.451Z,14.68
2022-12-25T12:43:19.897Z,16.88
2022-12-25T12:45:56.960Z,15.27
2022-12-25T12:48:29.446Z,16.65
2022-12-25T12:51:09.609Z,15.55
2022-12-25T12:53:40.360Z,18.83
2022-12-25T12:56:18.941Z,16.27
2022-12-25T12:58:50.968Z,17.48
2022-12-25T13:01:28.070Z,12.18
2022-12-25T13:04:39.900Z,14.80
2022-12-25T13:07:43.971Z,15.70
2022-12-25T13:10:41.828Z,13.98
2022-12-25T13:13:24.950Z,13.55
2022-12-25T13:15:52.611Z,16.77
2022-12-25T13:18:20.591Z,15.80
2022-12-25T13:21:18.871Z,15.25
2022-12-25T13:23:46.174Z,17.40
2022-12-25T13:26:17.087Z,16.92
2022-12-25T13:28:47.292Z,16.20
2022-12-25T13:31:19.614Z,15.10
2022-12-25T13:34:06.001Z,15.27
2022-12-25T13:36:40.055Z,14.13
2022-12-25T13:39:16.355Z,14.40
2022-12-25T13:42:10.091Z,16.05
2022-12-25T13:44:52.433Z,19.98
2022-12-25T13:47:53.082Z,16.45
2022-12-25T13:50:30.601Z,21.50
2022-12-25T13:53:12.156Z,16.40
2022-12-25T13:55:40.200Z,18.00
2022-12-25T13:58:30.981Z,14.57
2022-12-25T14:01:00.801Z,15.52
2022-12-25T14:03:42.607Z,15.73
2022-12-25T14:06:28.159Z,12.88
2022-12-25T14:08:58.719Z,18.02
2022-12-25T14:11:33.418Z,14.73
2022-12-25T14:14:08.239Z,14.95
2022-12-25T14:16:35.662Z,20.10
2022-12-25T14:19:03.695Z,17.13
2022-12-25T14:21:49.325Z,16.70
2022-12-25T14:24:17.386Z,16.30
2022-12-25T14:26:44.633Z,14.98
2022-12-25T14:29:18.069Z,16.77
2022-12-25T14:31:47.639Z,17.05
2022-12-25T14:34:20.269Z,19.17
2022-12-25T14:36:48.683Z,16.48
2022-12-25T14:39:33.218Z,18.25
2022-12-25T14:42:23.407Z,15.70
2022-12-25T14:45:28.039Z,18.25
2022-12-25T14:47:59.059Z,17.58
2022-12-25T14:50:26.246Z,16.83
2022-12-25T14:52:54.072Z,15.73
2022-12-25T14:55:25.430Z,18.58
2022-12-25T14:58:07.756Z,16.55
2022-12-25T15:00:39.645Z,18.30
2022-12-25T15:03:20.944Z,18.80
2022-12-25T15:06:01.312Z,18.17
2022-12-25T15:08:30.946Z,16.27
2022-12-25T15:11:02.850Z,15.98
2022-12-25T15:13:31.887Z,15.57
2022-12-25T15:16:16.008Z,17.73
2022-12-25T15:18:45.925Z,19.17
2022-12-25T15:21:23.206Z,14.52
2022-12-25T15:23:50.376Z,17.73
2022-12-25T15:26:17.546Z,19.17
2022-12-25T15:28:44.740Z,16.20
2022-12-25T15:31:27.483Z,17.70
2022-12-25T15:34:01.343Z,15.80
2022-12-25T15:36:29.128Z,15.68
2022-12-25T15:38:56.696Z,17.23
2022-12-25T15:41:54.948Z,15.52
2022-12-25T15:44:22.580Z,17.67
2022-12-25T15:46:49.997Z,15.32
2022-12-25T15:49:17.600Z,15.80
2022-12-25T15:51:45.658Z,15.10
2022-12-25T15:54:13.053Z,15.73
2022-12-25T15:56:51.224Z,15.73
2022-12-25T15:59:20.481Z,16.25
2022-12-25T16:01:51.500Z,16.98
2022-12-25T16:04:20.361Z,16.52
2022-12-25T16:06:48.193Z,16.33
2022-12-25T16:09:22.580Z,16.48
2022-12-25T16:11:50.263Z,19.02
2022-12-25T16:14:19.477Z,18.25
2022-12-25T16:16:46.614Z,18.25
2022-12-25T16:19:13.934Z,18.90
2022-12-25T16:21:46.451Z,18.88
2022-12-25T16:24:14.407Z,18.40
2022-12-25T16:26:43.223Z,19.20
2022-12-25T16:29:10.726Z,17.73
2022-12-25T16:31:38.940Z,18.02
2022-12-25T16:34:07.549Z,18.05
2022-12-25T16:36:35.773Z,18.17
2022-12-25T16:39:04.242Z,18.25
2022-12-25T16:41:32.754Z,18.60
2022-12-25T16:44:09.284Z,18.92
2022-12-25T16:46:37.821Z,20.23
2022-12-25T16:49:05.094Z,18.60
2022-12-25T16:51:35.687Z,19.88
2022-12-25T16:54:02.974Z,18.42
2022-12-25T16:56:30.893Z,19.52
2022-12-25T16:58:58.878Z,19.80
2022-12-25T17:01:26.198Z,20.30
2022-12-25T17:03:53.559Z,21.45
2022-12-25T17:06:25.563Z,19.55
2022-12-25T17:08:57.002Z,19.90
2022-12-25T17:11:27.411Z,20.52
2022-12-25T17:13:55.402Z,19.33
2022-12-25T17:16:26.666Z,20.00
2022-12-25T17:19:04.259Z,20.48
2022-12-25T17:21:35.133Z,19.40
2022-12-25T17:24:04.156Z,22.08
2022-12-25T17:26:33.056Z,19.95
2022-12-25T17:29:01.121Z,20.60
2022-12-25T17:31:29.368Z,21.13
2022-12-25T17:33:56.694Z,21.55
2022-12-25T17:36:23.909Z,21.75
2022-12-25T17:38:51.178Z,20.98
2022-12-25T17:41:20.115Z,23.90
2022-12-25T17:43:48.302Z,21.42
2022-12-25T17:46:22.471Z,22.33
2022-12-25T17:48:51.132Z,20.98
2022-12-25T17:51:23.688Z,20.92
2022-12-25T17:53:54.619Z,21.02
2022-12-25T17:56:23.314Z,20.10
2022-12-25T17:58:53.414Z,19.80
2022-12-25T18:01:22.287Z,28.40
2022-12-25T18:03:50.120Z,26.75
2022-12-25T18:06:21.481Z,23.90
2022-12-25T18:08:49.655Z,22.42
2022-12-25T18:11:21.235Z,27.30
2022-12-25T18:13:52.230Z,22.27
2022-12-25T18:16:22.445Z,26.00
2022-12-25T18:18:52.558Z,31.75
2022-12-25T18:21:22.234Z,27.05
2022-12-25T18:23:50.267Z,34.38
2022-12-25T18:26:18.704Z,23.63
2022-12-25T18:28:46.311Z,28.15
2022-12-25T18:31:18.102Z,26.92
2022-12-25T18:33:46.040Z,27.80
2022-12-25T18:36:15.588Z,23.83
2022-12-25T18:38:43.387Z,30.67
2022-12-25T18:41:11.948Z,25.63
2022-12-25T18:43:52.361Z,30.60
2022-12-25T18:46:26.369Z,38.35
2022-12-25T18:48:56.088Z,28.05
2022-12-25T18:51:23.608Z,27.27
2022-12-25T18:53:51.264Z,26.20
2022-12-25T18:56:20.545Z,60.85
2022-12-25T18:58:47.997Z,34.63
2022-12-25T19:01:22.536Z,53.63
2022-12-25T19:03:52.587Z,86.53
2022-12-25T19:06:27.536Z,217.93
2022-12-25T19:08:55.855Z,259.65
2022-12-25T19:11:23.537Z,180.82
2022-12-25T19:13:50.848Z,32.20
2022-12-25T19:16:18.784Z,167.40
2022-12-25T19:18:47.386Z,73.45
2022-12-25T19:21:16.106Z,92.30
2022-12-25T19:23:43.393Z,24.10
2022-12-25T19:26:12.010Z,111.75
2022-12-25T19:28:40.119Z,35.65
2022-12-25T19:31:09.188Z,104.07
2022-12-25T19:33:41.221Z,76.25
2022-12-25T19:36:12.521Z,40.65
2022-12-25T19:38:40.208Z,92.20
2022-12-25T19:41:16.693Z,185.60
2022-12-25T19:43:50.151Z,46.95
2022-12-25T19:46:21.244Z,122.22
2022-12-25T19:48:49.157Z,125.85
2022-12-25T19:51:36.570Z,141.35
2022-12-25T19:54:05.480Z,206.63
2022-12-25T19:56:33.726Z,210.32
2022-12-25T19:59:01.195Z,249.73
2022-12-25T20:01:29.833Z,262.23
2022-12-25T20:03:57.659Z,200.45
2022-12-25T20:06:32.346Z,257.92
2022-12-25T20:09:10.631Z,254.43
2022-12-25T20:11:39.135Z,277.23
2022-12-25T20:14:08.412Z,332.30
2022-12-25T20:16:40.231Z,340.50
2022-12-25T20:19:08.103Z,262.92
2022-12-25T20:21:35.397Z,141.05
2022-12-25T20:24:02.588Z,230.63
2022-12-25T20:26:31.899Z,270.27
2022-12-25T20:28:59.678Z,192.00
2022-12-25T20:31:32.794Z,284.63
2022-12-25T20:34:05.542Z,222.25
2022-12-25T20:36:37.769Z,232.15
2022-12-25T20:39:11.485Z,181.10
2022-12-25T20:41:39.756Z,153.88
2022-12-25T20:44:10.429Z,166.75
2022-12-25T20:46:37.931Z,138.70
2022-12-25T20:49:05.396Z,227.68
2022-12-25T20:51:35.287Z,171.25
2022-12-25T20:54:07.632Z,166.88
2022-12-25T20:56:34.938Z,203.27
2022-12-25T20:59:02.441Z,126.93
2022-12-25T21:01:31.235Z,193.80
2022-12-25T21:03:59.655Z,98.40
2022-12-25T21:06:27.021Z,88.75
2022-12-25T21:08:54.409Z,189.15
2022-12-25T21:11:21.990Z,166.23
2022-12-25T21:13:49.839Z,234.90
2022-12-25T21:16:21.482Z,135.13
2022-12-25T21:18:53.249Z,250.73
2022-12-25T21:21:21.504Z,332.63
2022-12-25T21:23:48.988Z,204.20
2022-12-25T21:26:20.182Z,275.90
2022-12-25T21:28:55.044Z,244.82
2022-12-25T21:31:22.904Z,128.27
2022-12-25T21:33:54.023Z,47.85
2022-12-25T21:36:29.601Z,99.80
2022-12-25T21:39:07.149Z,260.27
2022-12-25T21:41:37.293Z,118.30
2022-12-25T21:44:05.446Z,41.67
2022-12-25T21:46:32.735Z,56.53
2022-12-25T21:49:00.827Z,78.05
2022-12-25T21:51:50.557Z,74.32
2022-12-25T21:54:20.564Z,115.57
2022-12-25T21:56:49.508Z,148.63
2022-12-25T21:59:21.959Z,138.82
2022-12-25T22:01:50.800Z,133.40
2022-12-25T22:04:20.785Z,163.80
2022-12-25T22:07:07.194Z,156.52
2022-12-25T22:09:34.952Z,292.13
2022-12-25T22:12:21.283Z,180.60
2022-12-25T22:14:56.769Z,260.33
2022-12-25T22:17:53.492Z,192.20
2022-12-25T22:20:33.611Z,156.23
2022-12-25T22:23:00.838Z,181.68
2022-12-25T22:25:28.197Z,97.10
2022-12-25T22:27:55.839Z,114.38
2022-12-25T22:30:28.798Z,177.52
2022-12-25T22:32:56.565Z,162.40
2022-12-25T22:35:24.662Z,161.18
2022-12-25T22:37:53.439Z,140.00
2022-12-25T22:40:21.095Z,84.28
2022-12-25T22:42:48.414Z,103.18
2022-12-25T22:45:15.750Z,91.72
2022-12-25T22:47:43.012Z,118.40
2022-12-25T22:50:14.628Z,133.95
2022-12-25T22:52:42.284Z,55.22
2022-12-25T22:55:10.305Z,73.00
2022-12-25T22:57:37.701Z,153.55
2022-12-25T23:00:08.960Z,139.80
2022-12-25T23:02:36.552Z,122.13
2022-12-25T23:05:05.403Z,119.00
2022-12-25T23:07:32.689Z,126.65
2022-12-25T23:09:59.679Z,152.13
2022-12-25T23:12:45.220Z,145.98
2022-12-25T23:15:12.421Z,136.47
2022-12-25T23:17:58.240Z,145.77
2022-12-25T23:20:44.218Z,116.15
2022-12-25T23:23:35.119Z,119.57
2022-12-25T23:26:09.877Z,84.72
2022-12-25T23:28:58.555Z,110.78
2022-12-25T23:31:39.498Z,89.70
2022-12-25T23:34:07.346Z,60.83
2022-12-25T23:36:35.149Z,41.60
2022-12-25T23:39:09.058Z,46.53
2022-12-25T23:41:42.086Z,63.00
2022-12-25T23:44:13.557Z,59.55
2022-12-25T23:46:41.720Z,52.88
2022-12-25T23:49:21.283Z,43.22
2022-12-25T23:51:48.616Z,43.33
2022-12-25T23:54:20.851Z,60.47
2022-12-25T23:56:49.381Z,45.65
2022-12-25T23:59:17.165Z,52.72
